CheckWX is a tool to help pilots better visualize weather data.  It is not intended as a substitute for an official pre-flight weather briefing.

04:22:05 UTC

LLIB METAR
Ben Ya'akov Airport
Rosh Pina, Israel
Current

13 hours ago

LLIB 091550Z VRB02KT 4000 -RA SCT004 BKN020 13/13 Q1013
Observed
Dec-9 @ 15:50 UTC
Wind
  • Variable at 2 KTS
Visibility
4,000 meters
Flight Rules
IFR
Conditions
Light Rain
Cloud Levels
  • Scattered at 400' AGL
  • Broken at 2,000' AGL
Temperature
13°C / 55°F
Dewpoint
13°C / 55°F
Humidity
100%
Altimeter
29.91" Hg
Pressure
1012.92 hPa
Previous

14 hours ago

LLIB 091450Z 07005KT 040V110 6000 -RA SCT010 BKN025 14/13 Q1012
Observed
Dec-9 @ 14:50 UTC
Wind
  • 070° at 5 KTS
Visibility
6,000 meters
Flight Rules
MVFR
Conditions
Light Rain
Cloud Levels
  • Scattered at 1,000' AGL
  • Broken at 2,500' AGL
Temperature
14°C / 57°F
Dewpoint
13°C / 55°F
Humidity
94%
Altimeter
29.88" Hg
Pressure
1011.92 hPa
Previous

15 hours ago

LLIB 091350Z 19007KT 8000 SCT010 BKN025 14/12 Q1012 RMK RERA
Observed
Dec-9 @ 13:50 UTC
Wind
  • 190° at 7 KTS
Visibility
8,000 meters
Flight Rules
MVFR
Cloud Levels
  • Scattered at 1,000' AGL
  • Broken at 2,500' AGL
Temperature
14°C / 57°F
Dewpoint
12°C / 54°F
Humidity
88%
Altimeter
29.88" Hg
Pressure
1011.92 hPa